sensor_id;sensor_type;location;lat;lon;timestamp;pressure;altitude;pressure_sealevel;temperature
13219;BMP180;6674;49.152;11.918;2023-07-20T00:00:00;95733.91;;;17.48
13219;BMP180;6674;49.152;11.918;2023-07-20T00:02:26;95734.44;;;17.45
13219;BMP180;6674;49.152;11.918;2023-07-20T00:04:54;95734.44;;;17.45
13219;BMP180;6674;49.152;11.918;2023-07-20T00:07:21;95739.91;;;17.43
13219;BMP180;6674;49.152;11.918;2023-07-20T00:09:48;95734.44;;;17.35
13219;BMP180;6674;49.152;11.918;2023-07-20T00:12:14;95740.19;;;17.32
13219;BMP180;6674;49.152;11.918;2023-07-20T00:14:41;95733.38;;;17.26
13219;BMP180;6674;49.152;11.918;2023-07-20T00:17:09;95737.06;;;17.20
13219;BMP180;6674;49.152;11.918;2023-07-20T00:19:36;95733.09;;;17.18
13219;BMP180;6674;49.152;11.918;2023-07-20T00:22:03;95730.75;;;17.16
13219;BMP180;6674;49.152;11.918;2023-07-20T00:24:30;95728.16;;;17.16
13219;BMP180;6674;49.152;11.918;2023-07-20T00:26:57;95730.00;;;17.26
13219;BMP180;6674;49.152;11.918;2023-07-20T00:29:26;95728.72;;;17.28
13219;BMP180;6674;49.152;11.918;2023-07-20T00:31:53;95728.19;;;17.36
13219;BMP180;6674;49.152;11.918;2023-07-20T00:34:21;95731.06;;;17.29
13219;BMP180;6674;49.152;11.918;2023-07-20T00:36:47;95732.09;;;17.33
13219;BMP180;6674;49.152;11.918;2023-07-20T00:39:14;95733.94;;;17.38
13219;BMP180;6674;49.152;11.918;2023-07-20T00:41:41;95729.72;;;17.42
13219;BMP180;6674;49.152;11.918;2023-07-20T00:44:07;95727.63;;;17.44
13219;BMP180;6674;49.152;11.918;2023-07-20T00:46:34;95730.78;;;17.41
13219;BMP180;6674;49.152;11.918;2023-07-20T00:49:01;95731.81;;;17.40
13219;BMP180;6674;49.152;11.918;2023-07-20T00:51:29;95729.22;;;17.40
13219;BMP180;6674;49.152;11.918;2023-07-20T00:53:56;95734.94;;;17.42
13219;BMP180;6674;49.152;11.918;2023-07-20T00:56:23;95732.84;;;17.44
13219;BMP180;6674;49.152;11.918;2023-07-20T00:58:51;95731.81;;;17.40
13219;BMP180;6674;49.152;11.918;2023-07-20T01:01:18;95733.41;;;17.46
13219;BMP180;6674;49.152;11.918;2023-07-20T01:03:45;95731.56;;;17.36
13219;BMP180;6674;49.152;11.918;2023-07-20T01:06:19;95731.31;;;17.38
13219;BMP180;6674;49.152;11.918;2023-07-20T01:08:57;95734.72;;;17.19
13219;BMP180;6674;49.152;11.918;2023-07-20T01:11:33;95732.84;;;17.14
13219;BMP180;6674;49.152;11.918;2023-07-20T01:14:02;95726.59;;;17.10
13219;BMP180;6674;49.152;11.918;2023-07-20T01:16:29;95731.31;;;17.13
13219;BMP180;6674;49.152;11.918;2023-07-20T01:18:56;95721.66;;;17.14
13219;BMP180;6674;49.152;11.918;2023-07-20T01:21:31;95732.06;;;17.14
13219;BMP180;6674;49.152;11.918;2023-07-20T01:24:34;95726.59;;;17.15
13219;BMP180;6674;49.152;11.918;2023-07-20T01:27:30;95735.72;;;17.13
13219;BMP180;6674;49.152;11.918;2023-07-20T01:30:35;95724.50;;;17.12
13219;BMP180;6674;49.152;11.918;2023-07-20T01:33:10;95729.72;;;17.12
13219;BMP180;6674;49.152;11.918;2023-07-20T01:35:38;95718.78;;;17.15
13219;BMP180;6674;49.152;11.918;2023-07-20T01:38:08;95728.16;;;17.16
13219;BMP180;6674;49.152;11.918;2023-07-20T01:40:35;95718.28;;;17.13
13219;BMP180;6674;49.152;11.918;2023-07-20T01:43:02;95718.78;;;17.15
13219;BMP180;6674;49.152;11.918;2023-07-20T01:45:29;95722.94;;;17.16
13219;BMP180;6674;49.152;11.918;2023-07-20T01:47:56;95721.41;;;17.10
13219;BMP180;6674;49.152;11.918;2023-07-20T01:50:24;95729.72;;;17.12
13219;BMP180;6674;49.152;11.918;2023-07-20T01:52:51;95719.31;;;17.12
13219;BMP180;6674;49.152;11.918;2023-07-20T01:55:17;95712.50;;;17.11
13219;BMP180;6674;49.152;11.918;2023-07-20T01:57:44;95722.16;;;17.11
13219;BMP180;6674;49.152;11.918;2023-07-20T02:00:12;95732.84;;;17.14
13219;BMP180;6674;49.152;11.918;2023-07-20T02:02:39;95745.38;;;17.07
13219;BMP180;6674;49.152;11.918;2023-07-20T02:05:06;95752.41;;;17.07
13219;BMP180;6674;49.152;11.918;2023-07-20T02:07:34;95747.44;;;17.05
13219;BMP180;6674;49.152;11.918;2023-07-20T02:10:01;95747.44;;;17.05
13219;BMP180;6674;49.152;11.918;2023-07-20T02:12:28;95758.66;;;17.11
13219;BMP180;6674;49.152;11.918;2023-07-20T02:14:54;95746.94;;;17.08
13219;BMP180;6674;49.152;11.918;2023-07-20T02:17:21;95740.94;;;17.13
13219;BMP180;6674;49.152;11.918;2023-07-20T02:19:50;95739.13;;;17.13
13219;BMP180;6674;49.152;11.918;2023-07-20T02:22:17;95738.88;;;17.20
13219;BMP180;6674;49.152;11.918;2023-07-20T02:24:45;95724.53;;;17.22
13219;BMP180;6674;49.152;11.918;2023-07-20T02:27:12;95734.44;;;17.25
13219;BMP180;6674;49.152;11.918;2023-07-20T02:29:40;95746.97;;;17.33
13219;BMP180;6674;49.152;11.918;2023-07-20T02:32:07;95734.19;;;17.22
13219;BMP180;6674;49.152;11.918;2023-07-20T02:34:35;95741.50;;;17.20
13219;BMP180;6674;49.152;11.918;2023-07-20T02:37:02;95744.03;;;17.15
13219;BMP180;6674;49.152;11.918;2023-07-20T02:39:29;95753.19;;;17.12
13219;BMP180;6674;49.152;11.918;2023-07-20T02:41:58;95749.81;;;17.02
13219;BMP180;6674;49.152;11.918;2023-07-20T02:44:24;95753.94;;;16.98
13219;BMP180;6674;49.152;11.918;2023-07-20T02:46:51;95758.91;;;16.99
13219;BMP180;6674;49.152;11.918;2023-07-20T02:49:17;95753.69;;;17.09
13219;BMP180;6674;49.152;11.918;2023-07-20T02:51:44;95747.44;;;17.10
13219;BMP180;6674;49.152;11.918;2023-07-20T02:54:13;95752.66;;;17.15
13219;BMP180;6674;49.152;11.918;2023-07-20T02:56:40;95753.19;;;17.07
13219;BMP180;6674;49.152;11.918;2023-07-20T02:59:08;95759.44;;;17.11
13219;BMP180;6674;49.152;11.918;2023-07-20T03:01:35;95757.38;;;17.13
13219;BMP180;6674;49.152;11.918;2023-07-20T03:04:02;95759.44;;;17.11
13219;BMP180;6674;49.152;11.918;2023-07-20T03:06:29;95757.88;;;17.10
13219;BMP180;6674;49.152;11.918;2023-07-20T03:08:56;95753.69;;;17.14
13219;BMP180;6674;49.152;11.918;2023-07-20T03:11:23;95751.34;;;17.13
13219;BMP180;6674;49.152;11.918;2023-07-20T03:13:49;95752.16;;;17.13
13219;BMP180;6674;49.152;11.918;2023-07-20T03:16:19;95762.03;;;17.16
13219;BMP180;6674;49.152;11.918;2023-07-20T03:18:46;95762.28;;;17.05
13219;BMP180;6674;49.152;11.918;2023-07-20T03:21:13;95759.41;;;17.01
13219;BMP180;6674;49.152;11.918;2023-07-20T03:23:40;95756.03;;;17.11
13219;BMP180;6674;49.152;11.918;2023-07-20T03:26:07;95754.47;;;17.00
13219;BMP180;6674;49.152;11.918;2023-07-20T03:28:34;95746.66;;;16.95
13219;BMP180;6674;49.152;11.918;2023-07-20T03:31:00;95747.97;;;16.92
13219;BMP180;6674;49.152;11.918;2023-07-20T03:33:29;95754.19;;;16.91
13219;BMP180;6674;49.152;11.918;2023-07-20T03:35:57;95759.41;;;16.91
13219;BMP180;6674;49.152;11.918;2023-07-20T03:38:25;95762.53;;;16.88
13219;BMP180;6674;49.152;11.918;2023-07-20T03:40:53;95757.06;;;16.90
13219;BMP180;6674;49.152;11.918;2023-07-20T03:43:20;95765.13;;;16.88
13219;BMP180;6674;49.152;11.918;2023-07-20T03:45:47;95770.34;;;16.88
13219;BMP180;6674;49.152;11.918;2023-07-20T03:48:15;95775.53;;;16.83
13219;BMP180;6674;49.152;11.918;2023-07-20T03:50:43;95769.31;;;16.89
13219;BMP180;6674;49.152;11.918;2023-07-20T03:53:10;95774.78;;;16.83
13219;BMP180;6674;49.152;11.918;2023-07-20T03:55:37;95779.72;;;16.84
13219;BMP180;6674;49.152;11.918;2023-07-20T03:58:06;95784.44;;;16.87
13219;BMP180;6674;49.152;11.918;2023-07-20T04:00:34;95780.50;;;16.95
13219;BMP180;6674;49.152;11.918;2023-07-20T04:03:01;95786.00;;;16.98
13219;BMP180;6674;49.152;11.918;2023-07-20T04:05:27;95786.00;;;17.03
13219;BMP180;6674;49.152;11.918;2023-07-20T04:07:56;95791.25;;;17.08
13219;BMP180;6674;49.152;11.918;2023-07-20T04:10:22;95783.38;;;17.03
13219;BMP180;6674;49.152;11.918;2023-07-20T04:12:49;95784.44;;;17.07
13219;BMP180;6674;49.152;11.918;2023-07-20T04:15:16;95794.34;;;16.95
13219;BMP180;6674;49.152;11.918;2023-07-20T04:17:42;95797.97;;;16.99
13219;BMP180;6674;49.152;11.918;2023-07-20T04:20:09;95788.59;;;17.03
13219;BMP180;6674;49.152;11.918;2023-07-20T04:22:36;95794.34;;;16.95
13219;BMP180;6674;49.152;11.918;2023-07-20T04:25:04;95793.28;;;17.01
13219;BMP180;6674;49.152;11.918;2023-07-20T04:27:31;95800.34;;;17.01
13219;BMP180;6674;49.152;11.918;2023-07-20T04:29:58;95796.41;;;17.03
13219;BMP180;6674;49.152;11.918;2023-07-20T04:32:25;95801.66;;;17.08
13219;BMP180;6674;49.152;11.918;2023-07-20T04:34:52;95795.91;;;17.16
13219;BMP180;6674;49.152;11.918;2023-07-20T04:37:19;95799.63;;;17.20
13219;BMP180;6674;49.152;11.918;2023-07-20T04:39:46;95799.88;;;17.24
13219;BMP180;6674;49.152;11.918;2023-07-20T04:42:14;95807.19;;;17.31
13219;BMP180;6674;49.152;11.918;2023-07-20T04:44:40;95799.63;;;17.40
13219;BMP180;6674;49.152;11.918;2023-07-20T04:47:07;95807.44;;;17.40
13219;BMP180;6674;49.152;11.918;2023-07-20T04:49:35;95812.13;;;17.48
13219;BMP180;6674;49.152;11.918;2023-07-20T04:52:02;95811.38;;;17.57
13219;BMP180;6674;49.152;11.918;2023-07-20T04:54:29;95809.00;;;17.66
13219;BMP180;6674;49.152;11.918;2023-07-20T04:56:55;95814.22;;;17.71
13219;BMP180;6674;49.152;11.918;2023-07-20T04:59:24;95818.66;;;17.75
13219;BMP180;6674;49.152;11.918;2023-07-20T05:01:50;95818.91;;;17.69
13219;BMP180;6674;49.152;11.918;2023-07-20T05:04:17;95811.88;;;17.74
13219;BMP180;6674;49.152;11.918;2023-07-20T05:06:44;95815.00;;;17.66
13219;BMP180;6674;49.152;11.918;2023-07-20T05:09:11;95817.34;;;17.77
13219;BMP180;6674;49.152;11.918;2023-07-20T05:11:37;95826.22;;;17.72
13219;BMP180;6674;49.152;11.918;2023-07-20T05:14:04;95827.75;;;17.82
13219;BMP180;6674;49.152;11.918;2023-07-20T05:16:33;95827.25;;;17.85
13219;BMP180;6674;49.152;11.918;2023-07-20T05:19:00;95821.75;;;17.87
13219;BMP180;6674;49.152;11.918;2023-07-20T05:21:27;95824.63;;;17.80
13219;BMP180;6674;49.152;11.918;2023-07-20T05:23:53;95830.63;;;17.86
13219;BMP180;6674;49.152;11.918;2023-07-20T05:26:20;95831.44;;;17.86
13219;BMP180;6674;49.152;11.918;2023-07-20T05:28:47;95835.06;;;17.90
13219;BMP180;6674;49.152;11.918;2023-07-20T05:31:14;95828.03;;;17.76
13219;BMP180;6674;49.152;11.918;2023-07-20T05:33:42;95831.44;;;17.86
13219;BMP180;6674;49.152;11.918;2023-07-20T05:36:08;95830.88;;;17.99
13219;BMP180;6674;49.152;11.918;2023-07-20T05:38:35;95825.16;;;17.82
13219;BMP180;6674;49.152;11.918;2023-07-20T05:41:02;95822.53;;;17.87
13219;BMP180;6674;49.152;11.918;2023-07-20T05:43:29;95828.00;;;18.01
13219;BMP180;6674;49.152;11.918;2023-07-20T05:45:56;95820.44;;;17.99
13219;BMP180;6674;49.152;11.918;2023-07-20T05:48:23;95834.28;;;18.15
13219;BMP180;6674;49.152;11.918;2023-07-20T05:50:51;95835.59;;;18.17
13219;BMP180;6674;49.152;11.918;2023-07-20T05:53:19;95830.34;;;18.12
13219;BMP180;6674;49.152;11.918;2023-07-20T05:55:52;95836.09;;;18.19
13219;BMP180;6674;49.152;11.918;2023-07-20T05:58:18;95834.50;;;18.28
13219;BMP180;6674;49.152;11.918;2023-07-20T06:00:47;95836.09;;;18.19
13219;BMP180;6674;49.152;11.918;2023-07-20T06:03:14;95831.91;;;18.13
13219;BMP180;6674;49.152;11.918;2023-07-20T06:05:41;95835.53;;;18.37
13219;BMP180;6674;49.152;11.918;2023-07-20T06:08:10;95845.69;;;18.48
13219;BMP180;6674;49.152;11.918;2023-07-20T06:10:36;95840.16;;;18.59
13219;BMP180;6674;49.152;11.918;2023-07-20T06:13:03;95848.56;;;18.47
13219;BMP180;6674;49.152;11.918;2023-07-20T06:15:32;95846.41;;;18.58
13219;BMP180;6674;49.152;11.918;2023-07-20T06:18:00;95844.31;;;18.60
13219;BMP180;6674;49.152;11.918;2023-07-20T06:20:29;95843.22;;;18.71
13219;BMP180;6674;49.152;11.918;2023-07-20T06:22:56;95851.94;;;18.47
13219;BMP180;6674;49.152;11.918;2023-07-20T06:25:24;95855.34;;;18.38
13219;BMP180;6674;49.152;11.918;2023-07-20T06:27:51;95847.97;;;18.59
13219;BMP180;6674;49.152;11.918;2023-07-20T06:30:17;95846.38;;;18.68
13219;BMP180;6674;49.152;11.918;2023-07-20T06:32:44;95850.31;;;18.66
13219;BMP180;6674;49.152;11.918;2023-07-20T06:35:11;95844.25;;;18.80
13219;BMP180;6674;49.152;11.918;2023-07-20T06:37:38;95850.03;;;18.72
13219;BMP180;6674;49.152;11.918;2023-07-20T06:40:06;95847.84;;;18.89
13219;BMP180;6674;49.152;11.918;2023-07-20T06:42:35;95852.66;;;18.67
13219;BMP180;6674;49.152;11.918;2023-07-20T06:45:02;95842.13;;;18.82
13219;BMP180;6674;49.152;11.918;2023-07-20T06:47:29;95847.06;;;18.89
13219;BMP180;6674;49.152;11.918;2023-07-20T06:49:56;95848.19;;;18.73
13219;BMP180;6674;49.152;11.918;2023-07-20T06:52:23;95850.72;;;18.88
13219;BMP180;6674;49.152;11.918;2023-07-20T06:54:49;95849.44;;;18.85
13219;BMP180;6674;49.152;11.918;2023-07-20T06:57:16;95850.41;;;19.04
13219;BMP180;6674;49.152;11.918;2023-07-20T06:59:44;95858.69;;;19.16
13219;BMP180;6674;49.152;11.918;2023-07-20T07:02:11;95850.53;;;19.27
13219;BMP180;6674;49.152;11.918;2023-07-20T07:04:38;95863.31;;;19.29
13219;BMP180;6674;49.152;11.918;2023-07-20T07:07:05;95849.09;;;19.06
13219;BMP180;6674;49.152;11.918;2023-07-20T07:09:31;95862.31;;;19.25
13219;BMP180;6674;49.152;11.918;2023-07-20T07:11:58;95850.09;;;19.15
13219;BMP180;6674;49.152;11.918;2023-07-20T07:14:25;95841.44;;;19.20
13219;BMP180;6674;49.152;11.918;2023-07-20T07:16:53;95843.91;;;19.40
13219;BMP180;6674;49.152;11.918;2023-07-20T07:19:20;95844.38;;;19.46
13219;BMP180;6674;49.152;11.918;2023-07-20T07:21:46;95850.94;;;19.44
13219;BMP180;6674;49.152;11.918;2023-07-20T07:24:13;95855.41;;;19.44
13219;BMP180;6674;49.152;11.918;2023-07-20T07:26:40;95840.81;;;19.33
13219;BMP180;6674;49.152;11.918;2023-07-20T07:29:06;95851.34;;;19.23
13219;BMP180;6674;49.152;11.918;2023-07-20T07:31:34;95842.91;;;19.36
13219;BMP180;6674;49.152;11.918;2023-07-20T07:34:02;95840.94;;;19.51
13219;BMP180;6674;49.152;11.918;2023-07-20T07:36:30;95856.19;;;19.77
13219;BMP180;6674;49.152;11.918;2023-07-20T07:38:57;95855.34;;;19.87
13219;BMP180;6674;49.152;11.918;2023-07-20T07:41:25;95854.44;;;20.01
13219;BMP180;6674;49.152;11.918;2023-07-20T07:43:53;95852.69;;;19.91
13219;BMP180;6674;49.152;11.918;2023-07-20T07:46:21;95852.59;;;20.01
13219;BMP180;6674;49.152;11.918;2023-07-20T07:48:49;95851.78;;;20.06
13219;BMP180;6674;49.152;11.918;2023-07-20T07:51:19;95852.81;;;20.05
13219;BMP180;6674;49.152;11.918;2023-07-20T07:53:47;95855.75;;;20.27
13219;BMP180;6674;49.152;11.918;2023-07-20T07:56:16;95854.41;;;20.29
13219;BMP180;6674;49.152;11.918;2023-07-20T07:58:47;95853.69;;;20.24
13219;BMP180;6674;49.152;11.918;2023-07-20T08:01:14;95851.72;;;20.11
13219;BMP180;6674;49.152;11.918;2023-07-20T08:03:42;95850.75;;;20.30
13219;BMP180;6674;49.152;11.918;2023-07-20T08:06:08;95853.75;;;20.42
13219;BMP180;6674;49.152;11.918;2023-07-20T08:08:36;95852.66;;;20.48
13219;BMP180;6674;49.152;11.918;2023-07-20T08:11:04;95858.81;;;20.10
13219;BMP180;6674;49.152;11.918;2023-07-20T08:13:30;95859.66;;;20.29
13219;BMP180;6674;49.152;11.918;2023-07-20T08:15:57;95866.69;;;20.57
13219;BMP180;6674;49.152;11.918;2023-07-20T08:18:24;95873.69;;;20.66
13219;BMP180;6674;49.152;11.918;2023-07-20T08:20:51;95874.59;;;20.80
13219;BMP180;6674;49.152;11.918;2023-07-20T08:23:18;95866.16;;;20.83
13219;BMP180;6674;49.152;11.918;2023-07-20T08:25:46;95867.78;;;20.79
13219;BMP180;6674;49.152;11.918;2023-07-20T08:28:15;95866.59;;;20.90
13219;BMP180;6674;49.152;11.918;2023-07-20T08:30:43;95873.59;;;20.94
13219;BMP180;6674;49.152;11.918;2023-07-20T08:33:10;95869.78;;;20.87
13219;BMP180;6674;49.152;11.918;2023-07-20T08:35:37;95876.25;;;20.71
13219;BMP180;6674;49.152;11.918;2023-07-20T08:38:04;95866.31;;;20.91
13219;BMP180;6674;49.152;11.918;2023-07-20T08:40:31;95869.72;;;20.92
13219;BMP180;6674;49.152;11.918;2023-07-20T08:43:00;95868.59;;;20.98
13219;BMP180;6674;49.152;11.918;2023-07-20T08:45:27;95872.28;;;20.97
13219;BMP180;6674;49.152;11.918;2023-07-20T08:47:56;95871.16;;;21.03
13219;BMP180;6674;49.152;11.918;2023-07-20T08:50:23;95869.31;;;21.21
13219;BMP180;6674;49.152;11.918;2023-07-20T08:52:52;95863.84;;;21.36
13219;BMP180;6674;49.152;11.918;2023-07-20T08:55:20;95862.19;;;21.45
13219;BMP180;6674;49.152;11.918;2023-07-20T08:57:50;95866.81;;;21.53
13219;BMP180;6674;49.152;11.918;2023-07-20T09:00:19;95857.78;;;21.59
13219;BMP180;6674;49.152;11.918;2023-07-20T09:02:48;95859.22;;;21.52
13219;BMP180;6674;49.152;11.918;2023-07-20T09:05:15;95859.91;;;21.57
13219;BMP180;6674;49.152;11.918;2023-07-20T09:07:42;95860.66;;;21.39
13219;BMP180;6674;49.152;11.918;2023-07-20T09:10:09;95868.63;;;21.34
13219;BMP180;6674;49.152;11.918;2023-07-20T09:12:37;95863.69;;;21.51
13219;BMP180;6674;49.152;11.918;2023-07-20T09:15:05;95855.50;;;21.71
13219;BMP180;6674;49.152;11.918;2023-07-20T09:17:33;95855.22;;;21.72
13219;BMP180;6674;49.152;11.918;2023-07-20T09:20:03;95859.13;;;21.75
13219;BMP180;6674;49.152;11.918;2023-07-20T09:22:34;95864.41;;;21.57
13219;BMP180;6674;49.152;11.918;2023-07-20T09:25:01;95862.31;;;21.72
13219;BMP180;6674;49.152;11.918;2023-07-20T09:27:35;95858.47;;;21.83
13219;BMP180;6674;49.152;11.918;2023-07-20T09:30:03;95861.50;;;21.90
13219;BMP180;6674;49.152;11.918;2023-07-20T09:32:38;95864.66;;;22.05
13219;BMP180;6674;49.152;11.918;2023-07-20T09:35:06;95858.22;;;22.43
13219;BMP180;6674;49.152;11.918;2023-07-20T09:37:33;95851.84;;;22.17
13219;BMP180;6674;49.152;11.918;2023-07-20T09:40:00;95855.78;;;22.19
13219;BMP180;6674;49.152;11.918;2023-07-20T09:42:28;95852.81;;;21.76
13219;BMP180;6674;49.152;11.918;2023-07-20T09:44:55;95839.75;;;21.71
13219;BMP180;6674;49.152;11.918;2023-07-20T09:47:23;95852.00;;;22.07
13219;BMP180;6674;49.152;11.918;2023-07-20T09:49:57;95846.44;;;22.40
13219;BMP180;6674;49.152;11.918;2023-07-20T09:52:25;95851.13;;;22.70
13219;BMP180;6674;49.152;11.918;2023-07-20T09:54:52;95831.44;;;22.81
13219;BMP180;6674;49.152;11.918;2023-07-20T09:57:21;95834.47;;;22.88
13219;BMP180;6674;49.152;11.918;2023-07-20T09:59:48;95840.88;;;22.55
13219;BMP180;6674;49.152;11.918;2023-07-20T10:02:20;95840.63;;;22.70
13219;BMP180;6674;49.152;11.918;2023-07-20T10:04:49;95843.44;;;22.60
13219;BMP180;6674;49.152;11.918;2023-07-20T10:07:22;95838.97;;;23.00
13219;BMP180;6674;49.152;11.918;2023-07-20T10:09:51;95841.47;;;23.19
13219;BMP180;6674;49.152;11.918;2023-07-20T10:12:22;95844.69;;;22.62
13219;BMP180;6674;49.152;11.918;2023-07-20T10:14:54;95847.03;;;22.77
13219;BMP180;6674;49.152;11.918;2023-07-20T10:17:25;95842.28;;;22.93
13219;BMP180;6674;49.152;11.918;2023-07-20T10:19:55;95845.28;;;22.73
13219;BMP180;6674;49.152;11.918;2023-07-20T10:22:26;95826.84;;;23.13
13219;BMP180;6674;49.152;11.918;2023-07-20T10:24:53;95838.66;;;23.02
13219;BMP180;6674;49.152;11.918;2023-07-20T10:27:23;95837.94;;;23.10
13219;BMP180;6674;49.152;11.918;2023-07-20T10:29:51;95818.91;;;23.26
13219;BMP180;6674;49.152;11.918;2023-07-20T10:32:19;95823.88;;;23.28
13219;BMP180;6674;49.152;11.918;2023-07-20T10:34:50;95822.59;;;23.60
13219;BMP180;6674;49.152;11.918;2023-07-20T10:37:52;95811.50;;;23.63
13219;BMP180;6674;49.152;11.918;2023-07-20T10:40:30;95813.41;;;23.71
13219;BMP180;6674;49.152;11.918;2023-07-20T10:43:03;95808.16;;;23.58
13219;BMP180;6674;49.152;11.918;2023-07-20T10:45:34;95813.81;;;23.86
13219;BMP180;6674;49.152;11.918;2023-07-20T10:48:03;95808.59;;;23.73
13219;BMP180;6674;49.152;11.918;2023-07-20T10:50:32;95812.34;;;23.59
13219;BMP180;6674;49.152;11.918;2023-07-20T10:53:11;95809.31;;;23.43
13219;BMP180;6674;49.152;11.918;2023-07-20T10:55:38;95809.66;;;23.64
13219;BMP180;6674;49.152;11.918;2023-07-20T10:58:09;95814.03;;;23.77
13219;BMP180;6674;49.152;11.918;2023-07-20T11:00:37;95804.22;;;23.90
13219;BMP180;6674;49.152;11.918;2023-07-20T11:03:04;95798.88;;;24.04
13219;BMP180;6674;49.152;11.918;2023-07-20T11:05:33;95793.13;;;24.02
13219;BMP180;6674;49.152;11.918;2023-07-20T11:08:00;95800.34;;;24.18
13219;BMP180;6674;49.152;11.918;2023-07-20T11:10:30;95810.63;;;24.28
13219;BMP180;6674;49.152;11.918;2023-07-20T11:13:17;95797.72;;;24.18
13219;BMP180;6674;49.152;11.918;2023-07-20T11:15:48;95806.13;;;24.28
13219;BMP180;6674;49.152;11.918;2023-07-20T11:18:27;95790.38;;;24.37
13219;BMP180;6674;49.152;11.918;2023-07-20T11:20:54;95799.19;;;24.71
13219;BMP180;6674;49.152;11.918;2023-07-20T11:23:21;95798.03;;;25.02
13219;BMP180;6674;49.152;11.918;2023-07-20T11:25:49;95791.91;;;24.85
13219;BMP180;6674;49.152;11.918;2023-07-20T11:28:16;95789.38;;;24.63
13219;BMP180;6674;49.152;11.918;2023-07-20T11:30:43;95782.09;;;24.69
13219;BMP180;6674;49.152;11.918;2023-07-20T11:33:09;95785.34;;;24.66
13219;BMP180;6674;49.152;11.918;2023-07-20T11:35:42;95784.25;;;24.58
13219;BMP180;6674;49.152;11.918;2023-07-20T11:38:09;95781.59;;;24.50
13219;BMP180;6674;49.152;11.918;2023-07-20T11:40:35;95771.03;;;24.50
13219;BMP180;6674;49.152;11.918;2023-07-20T11:43:03;95778.53;;;24.73
13219;BMP180;6674;49.152;11.918;2023-07-20T11:45:30;95787.22;;;24.73
13219;BMP180;6674;49.152;11.918;2023-07-20T11:47:58;95788.38;;;24.42
13219;BMP180;6674;49.152;11.918;2023-07-20T11:50:25;95777.44;;;24.27
13219;BMP180;6674;49.152;11.918;2023-07-20T11:52:52;95764.66;;;24.51
13219;BMP180;6674;49.152;11.918;2023-07-20T11:55:19;95768.28;;;24.55
13219;BMP180;6674;49.152;11.918;2023-07-20T11:58:01;95769.16;;;24.42
13219;BMP180;6674;49.152;11.918;2023-07-20T12:00:29;95766.09;;;24.27
13219;BMP180;6674;49.152;11.918;2023-07-20T12:02:56;95760.50;;;24.58
13219;BMP180;6674;49.152;11.918;2023-07-20T12:05:23;95758.88;;;24.32
13219;BMP180;6674;49.152;11.918;2023-07-20T12:07:50;95775.84;;;24.56
13219;BMP180;6674;49.152;11.918;2023-07-20T12:10:23;95762.72;;;24.81
13219;BMP180;6674;49.152;11.918;2023-07-20T12:12:50;95757.59;;;24.85
13219;BMP180;6674;49.152;11.918;2023-07-20T12:15:20;95754.53;;;25.00
13219;BMP180;6674;49.152;11.918;2023-07-20T12:17:52;95741.06;;;25.18
13219;BMP180;6674;49.152;11.918;2023-07-20T12:20:29;95748.50;;;25.24
13219;BMP180;6674;49.152;11.918;2023-07-20T12:22:59;95759.50;;;25.01
13219;BMP180;6674;49.152;11.918;2023-07-20T12:25:39;95749.84;;;24.80
13219;BMP180;6674;49.152;11.918;2023-07-20T12:28:06;95750.78;;;24.84
13219;BMP180;6674;49.152;11.918;2023-07-20T12:30:33;95745.28;;;24.47
13219;BMP180;6674;49.152;11.918;2023-07-20T12:33:02;95736.50;;;24.85
13219;BMP180;6674;49.152;11.918;2023-07-20T12:35:29;95729.41;;;25.36
13219;BMP180;6674;49.152;11.918;2023-07-20T12:37:56;95722.03;;;25.58
13219;BMP180;6674;49.152;11.918;2023-07-20T12:40:23;95728.44;;;25.40
13219;BMP180;6674;49.152;11.918;2023-07-20T12:42:50;95728.13;;;25.50
13219;BMP180;6674;49.152;11.918;2023-07-20T12:45:17;95722.06;;;25.50
13219;BMP180;6674;49.152;11.918;2023-07-20T12:47:44;95715.38;;;25.60
13219;BMP180;6674;49.152;11.918;2023-07-20T12:50:12;95718.06;;;25.27
13219;BMP180;6674;49.152;11.918;2023-07-20T12:52:40;95728.13;;;25.42
13219;BMP180;6674;49.152;11.918;2023-07-20T12:55:08;95721.91;;;25.55
13219;BMP180;6674;49.152;11.918;2023-07-20T12:57:36;95731.41;;;25.39
13219;BMP180;6674;49.152;11.918;2023-07-20T13:00:05;95729.56;;;25.39
13219;BMP180;6674;49.152;11.918;2023-07-20T13:02:33;95725.63;;;24.86
13219;BMP180;6674;49.152;11.918;2023-07-20T13:05:00;95721.03;;;24.36
13219;BMP180;6674;49.152;11.918;2023-07-20T13:07:31;95718.13;;;24.46
13219;BMP180;6674;49.152;11.918;2023-07-20T13:09:59;95717.75;;;25.03
13219;BMP180;6674;49.152;11.918;2023-07-20T13:12:27;95715.28;;;25.23
13219;BMP180;6674;49.152;11.918;2023-07-20T13:14:55;95721.94;;;25.13
13219;BMP180;6674;49.152;11.918;2023-07-20T13:17:22;95717.16;;;25.23
13219;BMP180;6674;49.152;11.918;2023-07-20T13:19:49;95727.19;;;25.46
13219;BMP180;6674;49.152;11.918;2023-07-20T13:22:16;95714.47;;;25.48
13219;BMP180;6674;49.152;11.918;2023-07-20T13:24:45;95701.88;;;25.45
13219;BMP180;6674;49.152;11.918;2023-07-20T13:27:14;95705.03;;;25.22
13219;BMP180;6674;49.152;11.918;2023-07-20T13:29:40;95714.75;;;25.47
13219;BMP180;6674;49.152;11.918;2023-07-20T13:32:08;95711.53;;;25.16
13219;BMP180;6674;49.152;11.918;2023-07-20T13:34:35;95706.50;;;25.57
13219;BMP180;6674;49.152;11.918;2023-07-20T13:37:02;95719.78;;;25.31
13219;BMP180;6674;49.152;11.918;2023-07-20T13:39:28;95704.03;;;25.52
13219;BMP180;6674;49.152;11.918;2023-07-20T13:41:57;95704.88;;;25.27
13219;BMP180;6674;49.152;11.918;2023-07-20T13:44:23;95690.75;;;24.98
13219;BMP180;6674;49.152;11.918;2023-07-20T13:46:50;95703.47;;;25.29
13219;BMP180;6674;49.152;11.918;2023-07-20T13:49:17;95705.63;;;25.36
13219;BMP180;6674;49.152;11.918;2023-07-20T13:51:44;95688.53;;;25.42
13219;BMP180;6674;49.152;11.918;2023-07-20T13:54:12;95697.56;;;25.24
13219;BMP180;6674;49.152;11.918;2023-07-20T13:56:39;95688.50;;;25.50
13219;BMP180;6674;49.152;11.918;2023-07-20T13:59:07;95691.31;;;25.54
13219;BMP180;6674;49.152;11.918;2023-07-20T14:01:34;95689.94;;;25.39
13219;BMP180;6674;49.152;11.918;2023-07-20T14:04:01;95674.97;;;25.60
13219;BMP180;6674;49.152;11.918;2023-07-20T14:06:30;95678.53;;;25.72
13219;BMP180;6674;49.152;11.918;2023-07-20T14:08:58;95670.16;;;25.70
13219;BMP180;6674;49.152;11.918;2023-07-20T14:11:25;95679.03;;;25.66
13219;BMP180;6674;49.152;11.918;2023-07-20T14:13:52;95686.91;;;25.74